createdAt,value
2018-09-21T00:01:50.014Z,100981.09
2018-09-21T00:04:18.414Z,100973.25
2018-09-21T00:06:46.789Z,100969.32
2018-09-21T00:09:15.206Z,100964.60
2018-09-21T00:11:43.578Z,100968.02
2018-09-21T00:14:11.961Z,100969.32
2018-09-21T00:16:40.360Z,100962.80
2018-09-21T00:19:08.745Z,100952.73
2018-09-21T00:21:37.147Z,100954.04
2018-09-21T00:24:05.530Z,100945.75
2018-09-21T00:26:33.950Z,100942.23
2018-09-21T00:29:02.342Z,100944.86
2018-09-21T00:31:30.744Z,100941.38
2018-09-21T00:33:59.130Z,100934.85
2018-09-21T00:36:27.538Z,100938.80
2018-09-21T00:38:55.906Z,100937.06
2018-09-21T00:41:24.318Z,100936.62
2018-09-21T00:43:52.698Z,100927.89
2018-09-21T00:46:21.091Z,100925.72
2018-09-21T00:48:49.474Z,100923.13
2018-09-21T00:51:17.878Z,100917.89
2018-09-21T00:53:46.250Z,100919.66
2018-09-21T00:56:14.646Z,100912.23
2018-09-21T00:58:43.030Z,100910.92
2018-09-21T01:01:11.426Z,100911.79
2018-09-21T01:03:39.801Z,100906.13
2018-09-21T01:06:08.206Z,100902.65
2018-09-21T01:08:36.581Z,100904.41
2018-09-21T01:11:05.078Z,100896.55
2018-09-21T01:13:33.535Z,100894.78
2018-09-21T01:16:01.934Z,100892.61
2018-09-21T01:18:30.306Z,100885.16
2018-09-21T01:20:58.710Z,100882.95
2018-09-21T01:23:27.083Z,100879.88
2018-09-21T01:25:55.671Z,100877.66
2018-09-21T01:28:24.046Z,100874.95
2018-09-21T01:30:52.442Z,100872.73
2018-09-21T01:33:20.818Z,100876.63
2018-09-21T01:35:49.300Z,100874.86
2018-09-21T01:38:17.679Z,100870.02
2018-09-21T01:40:46.074Z,100866.03
2018-09-21T01:43:14.450Z,100865.99
2018-09-21T01:45:42.856Z,100860.70
2018-09-21T01:48:11.226Z,100857.63
2018-09-21T01:50:39.627Z,100850.15
2018-09-21T01:53:08.001Z,100846.17
2018-09-21T01:55:36.390Z,100836.52
2018-09-21T01:58:04.763Z,100829.91
2018-09-21T02:00:33.195Z,100832.92
2018-09-21T02:03:01.579Z,100828.52
2018-09-21T02:05:29.966Z,100823.23
2018-09-21T02:07:58.367Z,100816.61
2018-09-21T02:10:26.743Z,100814.39
2018-09-21T02:12:55.151Z,100808.67
2018-09-21T02:15:23.532Z,100801.20
2018-09-21T02:17:51.998Z,100806.80
2018-09-21T02:20:20.365Z,100794.52
2018-09-21T02:22:48.803Z,100792.28
2018-09-21T02:25:17.198Z,100789.61
2018-09-21T02:27:45.594Z,100793.48
2018-09-21T02:30:14.118Z,100782.53
2018-09-21T02:32:42.523Z,100782.06
2018-09-21T02:35:11.078Z,100780.28
2018-09-21T02:37:39.475Z,100778.91
2018-09-21T02:40:08.250Z,100776.27
2018-09-21T02:42:36.655Z,100784.97
2018-09-21T02:45:05.251Z,100780.56
2018-09-21T02:47:33.655Z,100774.39
2018-09-21T02:50:02.031Z,100769.53
2018-09-21T02:52:30.442Z,100770.37
2018-09-21T02:54:58.821Z,100765.97
2018-09-21T02:57:27.224Z,100755.87
2018-09-21T02:59:55.615Z,100755.86
2018-09-21T03:02:24.009Z,100747.07
2018-09-21T03:04:55.014Z,100749.69
2018-09-21T03:07:24.333Z,100751.39
2018-09-21T03:09:52.730Z,100744.80
2018-09-21T03:12:21.136Z,100736.00
2018-09-21T03:14:49.507Z,100739.43
2018-09-21T03:17:17.906Z,100739.36
2018-09-21T03:19:46.295Z,100740.59
2018-09-21T03:22:14.693Z,100741.39
2018-09-21T03:24:43.094Z,100736.11
2018-09-21T03:27:11.482Z,100730.77
2018-09-21T03:29:40.036Z,100722.38
2018-09-21T03:32:08.430Z,100720.55
2018-09-21T03:34:36.801Z,100728.34
2018-09-21T03:37:05.202Z,100722.16
2018-09-21T03:39:33.586Z,100724.31
2018-09-21T03:42:01.999Z,100722.50
2018-09-21T03:44:30.373Z,100721.16
2018-09-21T03:46:58.779Z,100713.66
2018-09-21T03:49:27.771Z,100713.64
2018-09-21T03:51:56.165Z,100709.65
2018-09-21T03:54:24.556Z,100702.20
2018-09-21T03:56:53.213Z,100699.52
2018-09-21T03:59:21.588Z,100699.90
2018-09-21T04:01:49.986Z,100690.68
2018-09-21T04:04:18.379Z,100690.20
2018-09-21T04:06:47.055Z,100684.03
2018-09-21T04:09:15.444Z,100693.62
2018-09-21T04:11:43.825Z,100688.34
2018-09-21T04:14:12.219Z,100674.28
2018-09-21T04:16:40.598Z,100679.53
2018-09-21T04:19:08.995Z,100676.45
2018-09-21T04:21:37.381Z,100676.45
2018-09-21T04:24:05.789Z,100669.07
2018-09-21T04:26:34.183Z,100663.38
2018-09-21T04:29:02.586Z,100670.00
2018-09-21T04:31:31.070Z,100662.54
2018-09-21T04:33:59.544Z,100653.79
2018-09-21T04:36:27.902Z,100648.98
2018-09-21T04:38:56.305Z,100645.06
2018-09-21T04:41:24.678Z,100649.47
2018-09-21T04:43:53.077Z,100648.62
2018-09-21T04:46:21.475Z,100642.97
2018-09-21T04:48:49.879Z,100645.22
2018-09-21T04:51:18.251Z,100632.52
2018-09-21T04:53:46.655Z,100634.31
2018-09-21T04:56:15.027Z,100631.69
2018-09-21T04:58:43.421Z,100623.40
2018-09-21T05:01:11.803Z,100616.83
2018-09-21T05:03:40.212Z,100624.71
2018-09-21T05:06:08.626Z,100608.88
2018-09-21T05:08:37.033Z,100606.71
2018-09-21T05:11:05.414Z,100606.63
2018-09-21T05:13:33.814Z,100594.78
2018-09-21T05:16:02.210Z,100596.48
2018-09-21T05:18:30.616Z,100587.66
2018-09-21T05:20:58.991Z,100587.58
2018-09-21T05:23:27.386Z,100582.22
2018-09-21T05:25:55.787Z,100586.08
2018-09-21T05:28:24.188Z,100584.66
2018-09-21T05:30:52.563Z,100585.87
2018-09-21T05:33:20.954Z,100585.34
2018-09-21T05:35:49.327Z,100582.60
2018-09-21T05:38:17.723Z,100579.41
2018-09-21T05:40:46.098Z,100576.70
2018-09-21T05:43:14.549Z,100569.61
2018-09-21T05:45:43.044Z,100570.36
2018-09-21T05:48:11.660Z,100564.16
2018-09-21T05:50:40.031Z,100561.44
2018-09-21T05:53:09.139Z,100559.55
2018-09-21T05:55:37.679Z,100552.03
2018-09-21T05:58:06.120Z,100546.13
2018-09-21T06:00:34.495Z,100544.30
2018-09-21T06:03:02.891Z,100537.61
2018-09-21T06:05:31.286Z,100541.41
2018-09-21T06:07:59.751Z,100540.42
2018-09-21T06:10:28.161Z,100537.22
2018-09-21T06:12:56.638Z,100534.95
2018-09-21T06:15:25.042Z,100534.37
2018-09-21T06:17:53.454Z,100529.47
2018-09-21T06:20:21.850Z,100532.84
2018-09-21T06:22:50.247Z,100533.17
2018-09-21T06:25:18.674Z,100526.86
2018-09-21T06:27:47.050Z,100520.11
2018-09-21T06:30:15.452Z,100506.28
2018-09-21T06:32:43.878Z,100508.69
2018-09-21T06:35:12.274Z,100504.97
2018-09-21T06:37:40.760Z,100499.00
2018-09-21T06:40:09.220Z,100498.30
2018-09-21T06:42:37.591Z,100494.07
2018-09-21T06:45:06.142Z,100492.11
2018-09-21T06:47:34.529Z,100488.77
2018-09-21T06:50:02.973Z,100477.61
2018-09-21T06:52:31.356Z,100477.75
2018-09-21T06:54:59.742Z,100475.33
2018-09-21T06:57:28.114Z,100469.25
2018-09-21T06:59:56.664Z,100465.42
2018-09-21T07:02:25.034Z,100462.70
2018-09-21T07:04:53.525Z,100454.39
2018-09-21T07:07:21.899Z,100464.41
2018-09-21T07:09:50.314Z,100457.31
2018-09-21T07:12:18.694Z,100453.34
2018-09-21T07:14:47.085Z,100446.35
2018-09-21T07:17:15.462Z,100453.03
2018-09-21T07:19:43.866Z,100447.80
2018-09-21T07:22:12.252Z,100440.77
2018-09-21T07:24:40.826Z,100435.98
2018-09-21T07:27:09.197Z,100433.87
2018-09-21T07:29:37.598Z,100436.21
2018-09-21T07:32:05.972Z,100443.11
2018-09-21T07:34:34.377Z,100438.16
2018-09-21T07:37:02.749Z,100435.90
2018-09-21T07:39:31.289Z,100443.92
2018-09-21T07:41:59.663Z,100443.58
2018-09-21T07:44:28.066Z,100440.18
2018-09-21T07:46:56.827Z,100437.62
2018-09-21T07:49:25.277Z,100428.92
2018-09-21T07:51:53.774Z,100434.69
2018-09-21T07:54:22.214Z,100435.62
2018-09-21T07:56:50.606Z,100431.31
2018-09-21T07:59:18.999Z,100428.92
2018-09-21T08:01:47.378Z,100423.84
2018-09-21T08:04:15.747Z,100423.23
2018-09-21T08:06:44.146Z,100411.39
2018-09-21T08:09:12.523Z,100408.95
2018-09-21T08:11:40.918Z,100404.92
2018-09-21T08:14:09.303Z,100405.73
2018-09-21T08:16:38.523Z,100398.12
2018-09-21T08:19:07.399Z,100396.23
2018-09-21T08:21:35.790Z,100393.20
2018-09-21T08:24:04.554Z,100386.26
2018-09-21T08:26:33.290Z,100383.61
2018-09-21T08:29:01.658Z,100390.59
2018-09-21T08:31:30.091Z,100381.78
2018-09-21T08:33:58.461Z,100369.00
2018-09-21T08:36:26.854Z,100363.15
2018-09-21T08:38:55.222Z,100358.27
2018-09-21T08:41:23.630Z,100355.48
2018-09-21T08:43:52.002Z,100352.20
2018-09-21T08:46:20.403Z,100365.19
2018-09-21T08:48:50.511Z,100374.20
2018-09-21T08:51:18.911Z,100370.52
2018-09-21T08:53:47.299Z,100367.64
2018-09-21T08:56:15.703Z,100361.25
2018-09-21T08:58:44.082Z,100351.82
2018-09-21T09:01:12.478Z,100348.92
2018-09-21T09:03:40.853Z,100349.23
2018-09-21T09:06:09.243Z,100330.11
2018-09-21T09:08:37.627Z,100318.84
2018-09-21T09:11:06.145Z,100321.22
2018-09-21T09:13:34.528Z,100313.61
2018-09-21T09:16:02.935Z,100307.33
2018-09-21T09:18:31.315Z,100313.38
2018-09-21T09:20:59.719Z,100304.53
2018-09-21T09:23:28.196Z,100301.36
2018-09-21T09:25:56.623Z,100294.98
2018-09-21T09:28:25.001Z,100289.41
2018-09-21T09:30:53.394Z,100279.21
2018-09-21T09:33:21.771Z,100277.25
2018-09-21T09:35:50.166Z,100269.66
2018-09-21T09:38:18.530Z,100258.41
2018-09-21T09:40:46.931Z,100252.18
2018-09-21T09:43:15.323Z,100244.79
2018-09-21T09:45:43.731Z,100235.09
2018-09-21T09:48:12.110Z,100228.91
2018-09-21T09:50:40.522Z,100223.58
2018-09-21T09:53:08.902Z,100220.09
2018-09-21T09:55:37.311Z,100223.68
2018-09-21T09:58:05.715Z,100216.32
2018-09-21T10:00:36.203Z,100212.31
2018-09-21T10:03:04.591Z,100199.33
2018-09-21T10:05:32.961Z,100206.45
2018-09-21T10:08:01.354Z,100195.10
2018-09-21T10:10:29.806Z,100185.98
2018-09-21T10:12:58.171Z,100188.44
2018-09-21T10:15:26.552Z,100180.33
2018-09-21T10:17:54.947Z,100179.54
2018-09-21T10:20:23.344Z,100175.66
2018-09-21T10:22:51.734Z,100160.64
2018-09-21T10:25:20.122Z,100166.83
2018-09-21T10:27:48.622Z,100146.40
2018-09-21T10:30:16.923Z,100147.72
2018-09-21T10:32:45.322Z,100138.59
2018-09-21T10:35:13.785Z,100127.98
2018-09-21T10:37:42.153Z,100129.88
2018-09-21T10:40:10.573Z,100136.67
2018-09-21T10:42:39.030Z,100133.67
2018-09-21T10:45:07.544Z,100120.68
2018-09-21T10:47:35.951Z,100127.36
2018-09-21T10:50:04.337Z,100123.84
2018-09-21T10:52:32.815Z,100111.33
2018-09-21T10:55:01.183Z,100107.69
2018-09-21T10:57:29.591Z,100099.34
2018-09-21T10:59:57.971Z,100102.91
2018-09-21T11:02:26.375Z,100104.42
2018-09-21T11:04:54.934Z,100096.69
2018-09-21T11:07:23.335Z,100100.84
2018-09-21T11:09:51.718Z,100093.44
2018-09-21T11:12:20.127Z,100093.79
2018-09-21T11:14:48.503Z,100087.60
2018-09-21T11:17:16.894Z,100069.48
2018-09-21T11:19:45.277Z,100076.66
2018-09-21T11:22:13.690Z,100084.57
2018-09-21T11:24:42.091Z,100065.47
2018-09-21T11:27:10.583Z,100070.46
2018-09-21T11:29:38.966Z,100063.63
2018-09-21T11:32:07.467Z,100062.17
2018-09-21T11:34:35.850Z,100059.50
2018-09-21T11:37:04.249Z,100065.95
2018-09-21T11:39:32.636Z,100069.97
2018-09-21T11:42:01.030Z,100062.46
2018-09-21T11:44:29.504Z,100065.03
2018-09-21T11:46:58.014Z,100067.72
2018-09-21T11:49:26.311Z,100042.31
2018-09-21T11:51:54.710Z,100052.42
2018-09-21T11:54:23.086Z,100068.56
2018-09-21T11:56:51.486Z,100054.84
2018-09-21T11:59:19.881Z,100039.16
2018-09-21T12:01:48.295Z,100012.56
2018-09-21T12:04:16.684Z,100019.11
2018-09-21T12:06:45.062Z,100018.02
2018-09-21T12:09:13.471Z,100016.47
2018-09-21T12:11:41.854Z,100023.16
2018-09-21T12:14:10.259Z,100010.67
2018-09-21T12:16:38.845Z,99994.73
2018-09-21T12:19:07.276Z,100000.56
2018-09-21T12:21:35.646Z,99996.63
2018-09-21T12:24:04.059Z,99988.26
2018-09-21T12:26:32.567Z,99979.26
2018-09-21T12:29:00.966Z,99978.05
2018-09-21T12:31:29.359Z,99972.81
2018-09-21T12:33:57.758Z,99973.80
2018-09-21T12:36:26.167Z,99972.57
2018-09-21T12:38:54.707Z,99966.87
2018-09-21T12:41:23.122Z,99949.70
2018-09-21T12:43:51.528Z,99950.34
2018-09-21T12:46:25.232Z,99962.58
2018-09-21T12:48:55.956Z,99961.97
2018-09-21T12:51:24.683Z,99942.88
2018-09-21T12:53:53.274Z,99950.55
2018-09-21T12:56:21.646Z,99946.19
2018-09-21T12:58:50.171Z,99931.09
2018-09-21T13:01:18.470Z,99924.06
2018-09-21T13:03:47.003Z,99918.23
2018-09-21T13:06:15.400Z,99922.13
2018-09-21T13:08:43.806Z,99910.70
2018-09-21T13:11:12.204Z,99917.63
2018-09-21T13:13:40.622Z,99909.95
2018-09-21T13:16:09.006Z,99908.13
2018-09-21T13:18:37.483Z,99898.38
2018-09-21T13:21:05.876Z,99894.72
2018-09-21T13:23:34.279Z,99891.45
2018-09-21T13:26:02.704Z,99908.17
2018-09-21T13:28:31.095Z,99896.89
2018-09-21T13:30:59.542Z,99890.77
2018-09-21T13:33:27.951Z,99891.75
2018-09-21T13:35:56.322Z,99882.64
2018-09-21T13:38:24.927Z,99882.25
2018-09-21T13:40:53.295Z,99876.02
2018-09-21T13:43:21.672Z,99873.47
2018-09-21T13:45:50.066Z,99886.16
2018-09-21T13:48:18.442Z,99888.56
2018-09-21T13:50:46.831Z,99885.23
2018-09-21T13:53:15.204Z,99887.69
2018-09-21T13:55:43.599Z,99902.57
2018-09-21T13:58:11.966Z,99945.64
2018-09-21T14:00:40.359Z,100056.61
2018-09-21T14:03:08.751Z,100123.22
2018-09-21T14:05:37.238Z,100117.12
2018-09-21T14:08:05.690Z,100177.11
2018-09-21T14:10:34.097Z,100168.06
2018-09-21T14:13:02.492Z,100191.38
2018-09-21T14:15:30.891Z,100198.35
2018-09-21T14:17:59.262Z,100206.08
2018-09-21T14:20:27.672Z,100233.00
2018-09-21T14:22:56.042Z,100270.81
2018-09-21T14:25:24.451Z,100277.44
2018-09-21T14:27:52.850Z,100277.82
2018-09-21T14:30:21.259Z,100299.21
2018-09-21T14:32:49.628Z,100311.90
2018-09-21T14:35:18.066Z,100326.08
2018-09-21T14:37:46.443Z,100339.13
2018-09-21T14:40:14.845Z,100354.73
2018-09-21T14:42:43.228Z,100359.83
2018-09-21T14:45:11.782Z,100353.89
2018-09-21T14:47:40.154Z,100364.91
2018-09-21T14:50:08.847Z,100375.98
2018-09-21T14:52:37.398Z,100385.69
2018-09-21T14:55:06.762Z,100397.95
2018-09-21T14:57:35.138Z,100397.21
2018-09-21T15:00:03.542Z,100402.52
2018-09-21T15:02:31.923Z,100410.86
2018-09-21T15:05:00.318Z,100413.99
2018-09-21T15:07:28.692Z,100412.27
2018-09-21T15:09:57.102Z,100409.25
2018-09-21T15:12:25.490Z,100424.16
2018-09-21T15:14:53.931Z,100412.89
2018-09-21T15:17:22.295Z,100403.80
2018-09-21T15:19:50.697Z,100400.78
2018-09-21T15:22:19.103Z,100406.52
2018-09-21T15:24:47.559Z,100408.70
2018-09-21T15:27:16.255Z,100401.34
2018-09-21T15:29:44.762Z,100399.19
2018-09-21T15:32:13.731Z,100414.50
2018-09-21T15:34:42.469Z,100413.20
2018-09-21T15:37:11.007Z,100401.42
2018-09-21T15:39:39.576Z,100412.80
2018-09-21T15:42:08.185Z,100428.91
2018-09-21T15:44:37.866Z,100439.44
2018-09-21T15:47:06.454Z,100425.94
2018-09-21T15:49:35.016Z,100408.48
2018-09-21T15:52:03.881Z,100413.70
2018-09-21T15:54:32.399Z,100385.72
2018-09-21T15:57:00.847Z,100386.11
2018-09-21T15:59:29.569Z,100396.63
2018-09-21T16:01:57.973Z,100404.89
2018-09-21T16:04:26.558Z,100410.59
2018-09-21T16:06:54.979Z,100423.32
2018-09-21T16:09:23.385Z,100440.36
2018-09-21T16:11:51.778Z,100454.80
2018-09-21T16:14:20.175Z,100462.70
2018-09-21T16:16:48.596Z,100465.38
2018-09-21T16:19:16.975Z,100485.91
2018-09-21T16:21:45.371Z,100480.27
2018-09-21T16:24:13.743Z,100468.95
2018-09-21T16:26:43.622Z,100454.16
2018-09-21T16:29:12.259Z,100450.27
2018-09-21T16:31:41.023Z,100443.29
2018-09-21T16:34:09.527Z,100444.20
2018-09-21T16:36:37.946Z,100441.17
2018-09-21T16:39:08.598Z,100430.34
2018-09-21T16:41:37.057Z,100415.96
2018-09-21T16:44:05.639Z,100403.34
2018-09-21T16:46:34.062Z,100409.87
2018-09-21T16:49:02.480Z,100410.31
2018-09-21T16:51:30.918Z,100404.64
2018-09-21T16:53:59.310Z,100429.09
2018-09-21T16:56:27.711Z,100433.87
2018-09-21T16:58:56.191Z,100446.55
2018-09-21T17:01:24.519Z,100459.23
2018-09-21T17:03:52.903Z,100457.52
2018-09-21T17:06:21.390Z,100472.81
2018-09-21T17:08:49.784Z,100465.86
2018-09-21T17:11:19.125Z,100448.05
2018-09-21T17:13:47.571Z,100444.58
2018-09-21T17:16:15.977Z,100447.64
2018-09-21T17:18:44.362Z,100434.16
2018-09-21T17:21:12.925Z,100413.28
2018-09-21T17:23:41.245Z,100383.20
2018-09-21T17:26:09.688Z,100416.30
2018-09-21T17:28:38.074Z,100464.28
2018-09-21T17:31:06.655Z,100490.02
2018-09-21T17:33:35.027Z,100498.29
2018-09-21T17:36:03.434Z,100497.02
2018-09-21T17:38:31.806Z,100488.36
2018-09-21T17:41:00.208Z,100479.25
2018-09-21T17:43:28.606Z,100450.97
2018-09-21T17:45:57.002Z,100453.18
2018-09-21T17:48:25.362Z,100434.47
2018-09-21T17:50:53.836Z,100434.92
2018-09-21T17:53:22.332Z,100461.06
2018-09-21T17:55:50.991Z,100470.21
2018-09-21T17:58:19.391Z,100475.48
2018-09-21T18:00:47.803Z,100480.70
2018-09-21T18:03:16.218Z,100488.58
2018-09-21T18:05:44.594Z,100491.68
2018-09-21T18:08:13.000Z,100509.56
2018-09-21T18:10:41.384Z,100520.91
2018-09-21T18:13:09.937Z,100542.70
2018-09-21T18:15:38.308Z,100563.20
2018-09-21T18:18:06.707Z,100589.77
2018-09-21T18:20:35.083Z,100572.36
2018-09-21T18:23:03.474Z,100569.34
2018-09-21T18:25:31.930Z,100553.66
2018-09-21T18:28:00.335Z,100528.39
2018-09-21T18:30:28.897Z,100530.14
2018-09-21T18:32:57.298Z,100544.95
2018-09-21T18:35:25.674Z,100544.54
2018-09-21T18:37:54.064Z,100574.59
2018-09-21T18:40:22.710Z,100574.59
2018-09-21T18:42:51.238Z,100578.09
2018-09-21T18:45:19.615Z,100582.00
2018-09-21T18:47:48.015Z,100576.36
2018-09-21T18:50:16.457Z,100581.59
2018-09-21T18:52:44.814Z,100573.77
2018-09-21T18:55:13.203Z,100584.66
2018-09-21T18:57:41.603Z,100584.22
2018-09-21T19:00:09.982Z,100599.03
2018-09-21T19:02:38.383Z,100595.58
2018-09-21T19:05:06.799Z,100598.19
2018-09-21T19:07:35.195Z,100598.22
2018-09-21T19:10:03.570Z,100610.41
2018-09-21T19:12:31.967Z,100620.85
2018-09-21T19:15:00.646Z,100637.41
2018-09-21T19:17:29.755Z,100646.57
2018-09-21T19:19:58.126Z,100650.48
2018-09-21T19:22:26.531Z,100644.81
2018-09-21T19:24:55.015Z,100654.84
2018-09-21T19:27:24.079Z,100654.84
2018-09-21T19:29:52.457Z,100663.56
2018-09-21T19:32:20.927Z,100667.92
2018-09-21T19:34:49.317Z,100677.06
2018-09-21T19:37:17.727Z,100676.20
2018-09-21T19:39:46.200Z,100679.22
2018-09-21T19:42:14.570Z,100679.69
2018-09-21T19:44:42.975Z,100688.83
2018-09-21T19:47:11.562Z,100691.44
2018-09-21T19:49:40.008Z,100696.20
2018-09-21T19:52:08.403Z,100694.48
2018-09-21T19:54:36.978Z,100699.28
2018-09-21T19:57:05.386Z,100708.41
2018-09-21T19:59:34.730Z,100715.37
2018-09-21T20:02:03.167Z,100724.95
2018-09-21T20:04:31.584Z,100727.57
2018-09-21T20:07:00.018Z,100733.69
2018-09-21T20:09:28.417Z,100733.66
2018-09-21T20:11:56.819Z,100738.44
2018-09-21T20:14:25.218Z,100747.14
2018-09-21T20:16:53.596Z,100748.91
2018-09-21T20:19:22.002Z,100755.00
2018-09-21T20:21:50.374Z,100756.72
2018-09-21T20:24:18.793Z,100767.59
2018-09-21T20:26:47.192Z,100765.41
2018-09-21T20:29:15.594Z,100766.28
2018-09-21T20:31:49.927Z,100776.29
2018-09-21T20:34:18.523Z,100777.16
2018-09-21T20:36:46.938Z,100771.09
2018-09-21T20:39:15.346Z,100775.44
2018-09-21T20:41:43.866Z,100774.55
2018-09-21T20:44:12.274Z,100788.90
2018-09-21T20:46:40.646Z,100782.83
2018-09-21T20:49:09.151Z,100787.61
2018-09-21T20:51:37.551Z,100791.94
2018-09-21T20:54:06.203Z,100795.85
2018-09-21T20:56:34.573Z,100795.41
2018-09-21T20:59:02.964Z,100798.47
2018-09-21T21:01:31.374Z,100793.66
2018-09-21T21:03:59.768Z,100793.65
2018-09-21T21:06:28.146Z,100800.17
2018-09-21T21:08:56.548Z,100807.13
2018-09-21T21:11:24.918Z,100814.07
2018-09-21T21:13:53.320Z,100805.37
2018-09-21T21:16:21.692Z,100807.52
2018-09-21T21:18:50.091Z,100807.52
2018-09-21T21:21:18.466Z,100811.84
2018-09-21T21:23:46.863Z,100801.86
2018-09-21T21:26:15.308Z,100820.52
2018-09-21T21:28:43.703Z,100816.16
2018-09-21T21:31:12.091Z,100813.97
2018-09-21T21:33:40.510Z,100820.05
2018-09-21T21:36:09.582Z,100814.39
2018-09-21T21:38:38.753Z,100829.17
2018-09-21T21:41:07.174Z,100826.11
2018-09-21T21:43:35.817Z,100821.33
2018-09-21T21:46:04.498Z,100826.09
2018-09-21T21:48:32.899Z,100823.03
2018-09-21T21:51:01.322Z,100831.29
2018-09-21T21:53:29.714Z,100836.94
2018-09-21T21:55:58.404Z,100844.73
2018-09-21T21:58:27.011Z,100846.47
2018-09-21T22:01:00.946Z,100845.58
2018-09-21T22:03:29.342Z,100847.73
2018-09-21T22:05:57.764Z,100854.20
2018-09-21T22:08:26.162Z,100852.86
2018-09-21T22:10:54.597Z,100860.66
2018-09-21T22:13:28.329Z,100866.30
2018-09-21T22:15:56.762Z,100863.23
2018-09-21T22:18:25.412Z,100868.45
2018-09-21T22:20:53.839Z,100868.01
2018-09-21T22:23:22.246Z,100870.19
2018-09-21T22:25:50.695Z,100878.45
2018-09-21T22:28:19.089Z,100878.02
2018-09-21T22:30:47.530Z,100878.89
2018-09-21T22:33:15.926Z,100872.34
2018-09-21T22:35:44.383Z,100875.38
2018-09-21T22:38:12.787Z,100884.04
2018-09-21T22:40:41.209Z,100884.90
2018-09-21T22:43:09.597Z,100883.58
2018-09-21T22:45:38.009Z,100888.75
2018-09-21T22:48:06.430Z,100878.29
2018-09-21T22:50:34.902Z,100881.75
2018-09-21T22:53:03.299Z,100882.58
2018-09-21T22:55:31.718Z,100887.33
2018-09-21T22:58:00.115Z,100889.92
2018-09-21T23:00:28.538Z,100891.64
2018-09-21T23:02:56.941Z,100883.78
2018-09-21T23:05:25.367Z,100888.97
2018-09-21T23:07:53.767Z,100882.01
2018-09-21T23:10:22.185Z,100878.95
2018-09-21T23:12:50.588Z,100885.87
2018-09-21T23:15:19.006Z,100894.98
2018-09-21T23:17:47.761Z,100891.92
2018-09-21T23:20:16.187Z,100892.77
2018-09-21T23:22:44.831Z,100889.27
2018-09-21T23:25:13.438Z,100895.77
2018-09-21T23:27:41.837Z,100897.08
2018-09-21T23:30:10.277Z,100902.28
2018-09-21T23:32:38.669Z,100916.13
2018-09-21T23:35:07.106Z,100916.57
2018-09-21T23:37:35.503Z,100913.97
2018-09-21T23:40:03.910Z,100913.48
2018-09-21T23:42:32.340Z,100910.86
2018-09-21T23:45:00.734Z,100905.63
2018-09-21T23:47:29.151Z,100908.21
2018-09-21T23:49:57.547Z,100912.09
2018-09-21T23:52:25.980Z,100916.40
2018-09-21T23:54:54.378Z,100911.58
2018-09-21T23:57:22.794Z,100918.95
2018-09-21T23:59:51.346Z,100918.92
